sensor_id;sensor_type;location;lat;lon;timestamp;temperature;humidity
64620;DHT22;51029;51.058;13.826;2023-05-27T00:01:23;10.20;99.90
64620;DHT22;51029;51.058;13.826;2023-05-27T00:03:48;10.10;99.90
64620;DHT22;51029;51.058;13.826;2023-05-27T00:06:14;10.10;99.90
64620;DHT22;51029;51.058;13.826;2023-05-27T00:08:39;10.10;99.90
64620;DHT22;51029;51.058;13.826;2023-05-27T00:11:05;10.00;99.90
64620;DHT22;51029;51.058;13.826;2023-05-27T00:13:30;10.00;99.90
64620;DHT22;51029;51.058;13.826;2023-05-27T00:15:56;10.00;99.90
64620;DHT22;51029;51.058;13.826;2023-05-27T00:18:22;10.00;99.90
64620;DHT22;51029;51.058;13.826;2023-05-27T00:20:47;10.00;99.90
64620;DHT22;51029;51.058;13.826;2023-05-27T00:23:14;9.90;99.90
64620;DHT22;51029;51.058;13.826;2023-05-27T00:25:39;9.90;99.90
64620;DHT22;51029;51.058;13.826;2023-05-27T00:28:05;9.90;99.90
64620;DHT22;51029;51.058;13.826;2023-05-27T00:30:31;9.80;99.90
64620;DHT22;51029;51.058;13.826;2023-05-27T00:32:57;9.80;99.90
64620;DHT22;51029;51.058;13.826;2023-05-27T00:35:22;9.80;99.90
64620;DHT22;51029;51.058;13.826;2023-05-27T00:37:48;9.80;99.90
64620;DHT22;51029;51.058;13.826;2023-05-27T00:40:15;9.80;99.90
64620;DHT22;51029;51.058;13.826;2023-05-27T00:42:43;9.80;99.90
64620;DHT22;51029;51.058;13.826;2023-05-27T00:45:10;9.70;99.90
64620;DHT22;51029;51.058;13.826;2023-05-27T00:47:35;9.70;99.90
64620;DHT22;51029;51.058;13.826;2023-05-27T00:50:03;9.60;99.90
64620;DHT22;51029;51.058;13.826;2023-05-27T00:52:29;9.60;99.90
64620;DHT22;51029;51.058;13.826;2023-05-27T00:54:55;9.60;99.90
64620;DHT22;51029;51.058;13.826;2023-05-27T00:57:21;9.50;99.90
64620;DHT22;51029;51.058;13.826;2023-05-27T00:59:47;9.50;99.90
64620;DHT22;51029;51.058;13.826;2023-05-27T01:02:12;9.40;99.90
64620;DHT22;51029;51.058;13.826;2023-05-27T01:04:38;9.40;99.90
64620;DHT22;51029;51.058;13.826;2023-05-27T01:07:10;9.50;99.90
64620;DHT22;51029;51.058;13.826;2023-05-27T01:12:40;9.40;99.90
64620;DHT22;51029;51.058;13.826;2023-05-27T01:15:09;9.30;99.90
64620;DHT22;51029;51.058;13.826;2023-05-27T01:17:36;9.30;99.90
64620;DHT22;51029;51.058;13.826;2023-05-27T01:20:09;9.20;99.90
64620;DHT22;51029;51.058;13.826;2023-05-27T01:22:35;9.20;99.90
64620;DHT22;51029;51.058;13.826;2023-05-27T01:25:01;9.10;99.90
64620;DHT22;51029;51.058;13.826;2023-05-27T01:27:29;9.10;99.90
64620;DHT22;51029;51.058;13.826;2023-05-27T01:29:54;9.10;99.90
64620;DHT22;51029;51.058;13.826;2023-05-27T01:32:29;9.00;99.90
64620;DHT22;51029;51.058;13.826;2023-05-27T01:35:07;9.00;99.90
64620;DHT22;51029;51.058;13.826;2023-05-27T01:37:37;9.00;99.90
64620;DHT22;51029;51.058;13.826;2023-05-27T01:40:05;8.90;99.90
64620;DHT22;51029;51.058;13.826;2023-05-27T01:42:33;8.90;99.90
64620;DHT22;51029;51.058;13.826;2023-05-27T01:45:01;8.90;99.90
64620;DHT22;51029;51.058;13.826;2023-05-27T01:47:27;8.80;99.90
64620;DHT22;51029;51.058;13.826;2023-05-27T01:49:52;8.80;99.90
64620;DHT22;51029;51.058;13.826;2023-05-27T01:52:18;8.80;99.90
64620;DHT22;51029;51.058;13.826;2023-05-27T01:54:44;8.80;99.90
64620;DHT22;51029;51.058;13.826;2023-05-27T01:57:09;8.70;99.90
64620;DHT22;51029;51.058;13.826;2023-05-27T01:59:35;8.60;99.90
64620;DHT22;51029;51.058;13.826;2023-05-27T02:02:00;8.60;99.90
64620;DHT22;51029;51.058;13.826;2023-05-27T02:04:26;8.50;99.90
64620;DHT22;51029;51.058;13.826;2023-05-27T02:06:51;8.50;99.90
64620;DHT22;51029;51.058;13.826;2023-05-27T02:09:17;8.50;99.90
64620;DHT22;51029;51.058;13.826;2023-05-27T02:11:43;8.50;99.90
64620;DHT22;51029;51.058;13.826;2023-05-27T02:14:08;8.40;99.90
64620;DHT22;51029;51.058;13.826;2023-05-27T02:16:35;8.40;99.90
64620;DHT22;51029;51.058;13.826;2023-05-27T02:19:02;8.40;99.90
64620;DHT22;51029;51.058;13.826;2023-05-27T02:21:28;8.40;99.90
64620;DHT22;51029;51.058;13.826;2023-05-27T02:23:53;8.30;99.90
64620;DHT22;51029;51.058;13.826;2023-05-27T02:26:19;8.30;99.90
64620;DHT22;51029;51.058;13.826;2023-05-27T02:28:44;8.30;99.90
64620;DHT22;51029;51.058;13.826;2023-05-27T02:31:10;8.30;99.90
64620;DHT22;51029;51.058;13.826;2023-05-27T02:33:35;8.30;99.90
64620;DHT22;51029;51.058;13.826;2023-05-27T02:36:01;8.20;99.90
64620;DHT22;51029;51.058;13.826;2023-05-27T02:38:26;8.20;99.90
64620;DHT22;51029;51.058;13.826;2023-05-27T02:40:52;8.20;99.90
64620;DHT22;51029;51.058;13.826;2023-05-27T02:43:17;8.10;99.90
64620;DHT22;51029;51.058;13.826;2023-05-27T02:45:43;8.10;99.90
64620;DHT22;51029;51.058;13.826;2023-05-27T02:48:08;8.10;99.90
64620;DHT22;51029;51.058;13.826;2023-05-27T02:50:34;8.00;99.90
64620;DHT22;51029;51.058;13.826;2023-05-27T02:53:00;8.00;99.90
64620;DHT22;51029;51.058;13.826;2023-05-27T02:55:25;8.00;99.90
64620;DHT22;51029;51.058;13.826;2023-05-27T02:57:51;8.00;99.90
64620;DHT22;51029;51.058;13.826;2023-05-27T03:00:16;8.00;99.90
64620;DHT22;51029;51.058;13.826;2023-05-27T03:02:43;8.00;99.90
64620;DHT22;51029;51.058;13.826;2023-05-27T03:05:08;8.00;99.90
64620;DHT22;51029;51.058;13.826;2023-05-27T03:07:34;7.90;99.90
64620;DHT22;51029;51.058;13.826;2023-05-27T03:09:59;7.80;99.90
64620;DHT22;51029;51.058;13.826;2023-05-27T03:12:25;7.80;99.90
64620;DHT22;51029;51.058;13.826;2023-05-27T03:14:51;7.80;99.90
64620;DHT22;51029;51.058;13.826;2023-05-27T03:17:18;7.80;99.90
64620;DHT22;51029;51.058;13.826;2023-05-27T03:19:44;7.80;99.90
64620;DHT22;51029;51.058;13.826;2023-05-27T03:22:09;7.80;99.90
64620;DHT22;51029;51.058;13.826;2023-05-27T03:24:35;7.90;99.90
64620;DHT22;51029;51.058;13.826;2023-05-27T03:27:01;7.80;99.90
64620;DHT22;51029;51.058;13.826;2023-05-27T03:29:29;7.80;99.90
64620;DHT22;51029;51.058;13.826;2023-05-27T03:31:54;7.90;99.90
64620;DHT22;51029;51.058;13.826;2023-05-27T03:34:20;7.80;99.90
64620;DHT22;51029;51.058;13.826;2023-05-27T03:36:46;7.80;99.90
64620;DHT22;51029;51.058;13.826;2023-05-27T03:39:12;7.90;99.90
64620;DHT22;51029;51.058;13.826;2023-05-27T03:41:38;7.90;99.90
64620;DHT22;51029;51.058;13.826;2023-05-27T03:44:04;7.90;99.90
64620;DHT22;51029;51.058;13.826;2023-05-27T03:46:29;7.90;99.90
64620;DHT22;51029;51.058;13.826;2023-05-27T03:48:55;8.00;99.90
64620;DHT22;51029;51.058;13.826;2023-05-27T03:51:21;7.90;99.90
64620;DHT22;51029;51.058;13.826;2023-05-27T03:53:47;7.90;99.90
64620;DHT22;51029;51.058;13.826;2023-05-27T03:56:12;8.00;99.90
64620;DHT22;51029;51.058;13.826;2023-05-27T03:58:38;8.00;99.90
64620;DHT22;51029;51.058;13.826;2023-05-27T04:01:03;8.00;99.90
64620;DHT22;51029;51.058;13.826;2023-05-27T04:03:29;8.10;99.90
64620;DHT22;51029;51.058;13.826;2023-05-27T04:05:54;8.10;99.90
64620;DHT22;51029;51.058;13.826;2023-05-27T04:08:22;8.20;99.90
64620;DHT22;51029;51.058;13.826;2023-05-27T04:10:48;8.20;99.90
64620;DHT22;51029;51.058;13.826;2023-05-27T04:13:13;8.20;99.90
64620;DHT22;51029;51.058;13.826;2023-05-27T04:15:39;8.30;99.90
64620;DHT22;51029;51.058;13.826;2023-05-27T04:18:05;8.30;99.90
64620;DHT22;51029;51.058;13.826;2023-05-27T04:20:40;8.40;99.90
64620;DHT22;51029;51.058;13.826;2023-05-27T04:23:08;8.50;99.90
64620;DHT22;51029;51.058;13.826;2023-05-27T04:25:34;8.50;99.90
64620;DHT22;51029;51.058;13.826;2023-05-27T04:28:01;8.60;99.90
64620;DHT22;51029;51.058;13.826;2023-05-27T04:30:32;8.60;99.90
64620;DHT22;51029;51.058;13.826;2023-05-27T04:32:58;8.70;99.90
64620;DHT22;51029;51.058;13.826;2023-05-27T04:35:24;8.70;99.90
64620;DHT22;51029;51.058;13.826;2023-05-27T04:37:50;8.80;99.90
64620;DHT22;51029;51.058;13.826;2023-05-27T04:40:16;8.90;99.90
64620;DHT22;51029;51.058;13.826;2023-05-27T04:42:42;9.00;99.90
64620;DHT22;51029;51.058;13.826;2023-05-27T04:45:09;9.10;99.90
64620;DHT22;51029;51.058;13.826;2023-05-27T04:47:37;9.10;99.90
64620;DHT22;51029;51.058;13.826;2023-05-27T04:50:06;9.20;99.90
64620;DHT22;51029;51.058;13.826;2023-05-27T04:52:32;9.30;99.90
64620;DHT22;51029;51.058;13.826;2023-05-27T04:55:05;9.40;99.90
64620;DHT22;51029;51.058;13.826;2023-05-27T04:57:30;9.40;99.90
64620;DHT22;51029;51.058;13.826;2023-05-27T04:59:56;9.60;99.90
64620;DHT22;51029;51.058;13.826;2023-05-27T05:02:43;9.70;99.90
64620;DHT22;51029;51.058;13.826;2023-05-27T05:05:12;9.70;99.90
64620;DHT22;51029;51.058;13.826;2023-05-27T05:07:39;9.90;99.90
64620;DHT22;51029;51.058;13.826;2023-05-27T05:10:10;9.90;99.90
64620;DHT22;51029;51.058;13.826;2023-05-27T05:12:36;10.00;99.90
64620;DHT22;51029;51.058;13.826;2023-05-27T05:15:02;10.10;99.90
64620;DHT22;51029;51.058;13.826;2023-05-27T05:17:28;10.20;99.90
64620;DHT22;51029;51.058;13.826;2023-05-27T05:19:55;10.20;99.90
64620;DHT22;51029;51.058;13.826;2023-05-27T05:22:20;10.30;99.90
64620;DHT22;51029;51.058;13.826;2023-05-27T05:24:49;10.30;99.90
64620;DHT22;51029;51.058;13.826;2023-05-27T05:27:15;10.40;99.90
64620;DHT22;51029;51.058;13.826;2023-05-27T05:29:41;10.40;99.90
64620;DHT22;51029;51.058;13.826;2023-05-27T05:32:08;10.50;99.90
64620;DHT22;51029;51.058;13.826;2023-05-27T05:34:34;10.60;99.90
64620;DHT22;51029;51.058;13.826;2023-05-27T05:36:59;10.70;99.90
64620;DHT22;51029;51.058;13.826;2023-05-27T05:39:25;10.70;99.90
64620;DHT22;51029;51.058;13.826;2023-05-27T05:41:50;10.80;99.90
64620;DHT22;51029;51.058;13.826;2023-05-27T05:44:16;10.90;99.90
64620;DHT22;51029;51.058;13.826;2023-05-27T05:46:42;10.90;99.90
64620;DHT22;51029;51.058;13.826;2023-05-27T05:49:07;11.00;99.90
64620;DHT22;51029;51.058;13.826;2023-05-27T05:51:33;11.10;99.90
64620;DHT22;51029;51.058;13.826;2023-05-27T05:53:59;11.30;99.90
64620;DHT22;51029;51.058;13.826;2023-05-27T05:56:25;11.50;99.90
64620;DHT22;51029;51.058;13.826;2023-05-27T05:58:54;11.70;99.90
64620;DHT22;51029;51.058;13.826;2023-05-27T06:01:19;11.70;99.90
64620;DHT22;51029;51.058;13.826;2023-05-27T06:03:45;11.80;99.90
64620;DHT22;51029;51.058;13.826;2023-05-27T06:06:10;12.00;99.90
64620;DHT22;51029;51.058;13.826;2023-05-27T06:08:36;12.20;99.90
64620;DHT22;51029;51.058;13.826;2023-05-27T06:11:02;12.30;99.90
64620;DHT22;51029;51.058;13.826;2023-05-27T06:13:27;12.50;99.90
64620;DHT22;51029;51.058;13.826;2023-05-27T06:15:53;12.60;99.90
64620;DHT22;51029;51.058;13.826;2023-05-27T06:18:21;12.70;99.90
64620;DHT22;51029;51.058;13.826;2023-05-27T06:20:46;12.70;99.90
64620;DHT22;51029;51.058;13.826;2023-05-27T06:23:12;12.80;99.90
64620;DHT22;51029;51.058;13.826;2023-05-27T06:25:38;12.90;99.90
64620;DHT22;51029;51.058;13.826;2023-05-27T06:28:03;13.00;99.90
64620;DHT22;51029;51.058;13.826;2023-05-27T06:30:29;13.10;99.90
64620;DHT22;51029;51.058;13.826;2023-05-27T06:32:55;13.20;99.90
64620;DHT22;51029;51.058;13.826;2023-05-27T06:35:20;13.30;99.90
64620;DHT22;51029;51.058;13.826;2023-05-27T06:37:46;13.40;99.90
64620;DHT22;51029;51.058;13.826;2023-05-27T06:40:12;13.50;99.90
64620;DHT22;51029;51.058;13.826;2023-05-27T06:42:37;13.60;99.90
64620;DHT22;51029;51.058;13.826;2023-05-27T06:45:03;13.80;99.90
64620;DHT22;51029;51.058;13.826;2023-05-27T06:47:29;13.70;99.90
64620;DHT22;51029;51.058;13.826;2023-05-27T06:49:54;13.80;99.90
64620;DHT22;51029;51.058;13.826;2023-05-27T06:52:20;13.80;99.90
64620;DHT22;51029;51.058;13.826;2023-05-27T06:54:47;13.80;99.90
64620;DHT22;51029;51.058;13.826;2023-05-27T06:57:12;14.00;99.90
64620;DHT22;51029;51.058;13.826;2023-05-27T06:59:38;14.20;99.90
64620;DHT22;51029;51.058;13.826;2023-05-27T07:02:04;14.30;99.90
64620;DHT22;51029;51.058;13.826;2023-05-27T07:04:29;14.40;99.90
64620;DHT22;51029;51.058;13.826;2023-05-27T07:06:55;14.40;99.90
64620;DHT22;51029;51.058;13.826;2023-05-27T07:09:20;14.70;99.90
64620;DHT22;51029;51.058;13.826;2023-05-27T07:11:46;14.90;99.90
64620;DHT22;51029;51.058;13.826;2023-05-27T07:14:11;15.10;99.90
64620;DHT22;51029;51.058;13.826;2023-05-27T07:16:37;15.30;99.90
64620;DHT22;51029;51.058;13.826;2023-05-27T07:19:02;15.50;99.90
64620;DHT22;51029;51.058;13.826;2023-05-27T07:21:28;15.70;99.90
64620;DHT22;51029;51.058;13.826;2023-05-27T07:23:54;15.70;99.90
64620;DHT22;51029;51.058;13.826;2023-05-27T07:26:19;15.80;99.90
64620;DHT22;51029;51.058;13.826;2023-05-27T07:28:45;15.90;99.90
64620;DHT22;51029;51.058;13.826;2023-05-27T07:31:11;16.00;99.90
64620;DHT22;51029;51.058;13.826;2023-05-27T07:33:37;16.10;99.90
64620;DHT22;51029;51.058;13.826;2023-05-27T07:36:02;16.20;99.90
64620;DHT22;51029;51.058;13.826;2023-05-27T07:38:28;16.40;99.90
64620;DHT22;51029;51.058;13.826;2023-05-27T07:40:53;16.40;99.90
64620;DHT22;51029;51.058;13.826;2023-05-27T07:43:19;16.40;99.90
64620;DHT22;51029;51.058;13.826;2023-05-27T07:45:45;16.30;99.90
64620;DHT22;51029;51.058;13.826;2023-05-27T07:48:10;16.50;99.90
64620;DHT22;51029;51.058;13.826;2023-05-27T07:50:36;16.70;99.90
64620;DHT22;51029;51.058;13.826;2023-05-27T07:53:01;16.80;99.90
64620;DHT22;51029;51.058;13.826;2023-05-27T07:55:27;17.00;99.90
64620;DHT22;51029;51.058;13.826;2023-05-27T07:57:54;17.20;99.90
64620;DHT22;51029;51.058;13.826;2023-05-27T08:00:20;17.30;99.90
64620;DHT22;51029;51.058;13.826;2023-05-27T08:02:45;17.40;99.90
64620;DHT22;51029;51.058;13.826;2023-05-27T08:05:11;17.60;99.90
64620;DHT22;51029;51.058;13.826;2023-05-27T08:07:36;17.80;99.90
64620;DHT22;51029;51.058;13.826;2023-05-27T08:10:02;17.90;99.90
64620;DHT22;51029;51.058;13.826;2023-05-27T08:12:28;18.00;99.90
64620;DHT22;51029;51.058;13.826;2023-05-27T08:14:53;17.90;99.90
64620;DHT22;51029;51.058;13.826;2023-05-27T08:17:19;17.80;99.90
64620;DHT22;51029;51.058;13.826;2023-05-27T08:19:44;18.10;99.90
64620;DHT22;51029;51.058;13.826;2023-05-27T08:22:10;18.30;99.90
64620;DHT22;51029;51.058;13.826;2023-05-27T08:24:36;18.40;99.90
64620;DHT22;51029;51.058;13.826;2023-05-27T08:27:02;18.70;99.90
64620;DHT22;51029;51.058;13.826;2023-05-27T08:29:28;18.90;99.90
64620;DHT22;51029;51.058;13.826;2023-05-27T08:31:56;19.10;99.90
64620;DHT22;51029;51.058;13.826;2023-05-27T08:34:22;19.20;99.90
64620;DHT22;51029;51.058;13.826;2023-05-27T08:36:47;19.20;99.90
64620;DHT22;51029;51.058;13.826;2023-05-27T08:39:13;19.20;99.90
64620;DHT22;51029;51.058;13.826;2023-05-27T08:41:39;19.00;99.90
64620;DHT22;51029;51.058;13.826;2023-05-27T08:44:05;19.10;99.90
64620;DHT22;51029;51.058;13.826;2023-05-27T08:46:32;19.40;99.90
64620;DHT22;51029;51.058;13.826;2023-05-27T08:48:59;19.70;99.90
64620;DHT22;51029;51.058;13.826;2023-05-27T08:51:25;19.90;99.20
64620;DHT22;51029;51.058;13.826;2023-05-27T08:53:52;20.10;98.40
64620;DHT22;51029;51.058;13.826;2023-05-27T08:56:19;20.00;97.40
64620;DHT22;51029;51.058;13.826;2023-05-27T08:58:47;19.60;97.20
64620;DHT22;51029;51.058;13.826;2023-05-27T09:01:16;19.60;98.60
64620;DHT22;51029;51.058;13.826;2023-05-27T09:03:42;19.70;98.80
64620;DHT22;51029;51.058;13.826;2023-05-27T09:06:07;20.10;99.30
64620;DHT22;51029;51.058;13.826;2023-05-27T09:08:33;20.40;96.20
64620;DHT22;51029;51.058;13.826;2023-05-27T09:10:58;20.20;96.80
64620;DHT22;51029;51.058;13.826;2023-05-27T09:13:30;20.20;94.80
64620;DHT22;51029;51.058;13.826;2023-05-27T09:16:05;20.40;96.30
64620;DHT22;51029;51.058;13.826;2023-05-27T09:18:32;20.80;94.90
64620;DHT22;51029;51.058;13.826;2023-05-27T09:20:58;21.20;95.20
64620;DHT22;51029;51.058;13.826;2023-05-27T09:23:24;21.40;94.10
64620;DHT22;51029;51.058;13.826;2023-05-27T09:25:51;21.80;93.70
64620;DHT22;51029;51.058;13.826;2023-05-27T09:28:24;22.00;92.60
64620;DHT22;51029;51.058;13.826;2023-05-27T09:31:08;22.30;92.50
64620;DHT22;51029;51.058;13.826;2023-05-27T09:33:36;22.60;91.30
64620;DHT22;51029;51.058;13.826;2023-05-27T09:36:03;23.00;90.60
64620;DHT22;51029;51.058;13.826;2023-05-27T09:38:32;23.30;86.90
64620;DHT22;51029;51.058;13.826;2023-05-27T09:40:58;23.10;82.30
64620;DHT22;51029;51.058;13.826;2023-05-27T09:43:25;23.40;84.40
64620;DHT22;51029;51.058;13.826;2023-05-27T09:45:54;23.10;80.90
64620;DHT22;51029;51.058;13.826;2023-05-27T09:48:22;22.90;82.10
64620;DHT22;51029;51.058;13.826;2023-05-27T09:50:49;23.20;83.30
64620;DHT22;51029;51.058;13.826;2023-05-27T09:53:16;23.90;80.30
64620;DHT22;51029;51.058;13.826;2023-05-27T09:55:43;24.30;76.90
64620;DHT22;51029;51.058;13.826;2023-05-27T09:58:09;25.10;75.90
64620;DHT22;51029;51.058;13.826;2023-05-27T10:00:37;26.00;71.10
64620;DHT22;51029;51.058;13.826;2023-05-27T10:03:05;26.90;68.50
64620;DHT22;51029;51.058;13.826;2023-05-27T10:05:32;26.50;62.90
64620;DHT22;51029;51.058;13.826;2023-05-27T10:07:59;26.60;64.20
64620;DHT22;51029;51.058;13.826;2023-05-27T10:10:24;26.80;60.10
64620;DHT22;51029;51.058;13.826;2023-05-27T10:12:51;26.60;60.70
64620;DHT22;51029;51.058;13.826;2023-05-27T10:15:24;26.90;60.50
64620;DHT22;51029;51.058;13.826;2023-05-27T10:17:55;28.30;58.50
64620;DHT22;51029;51.058;13.826;2023-05-27T10:20:42;29.10;52.60
64620;DHT22;51029;51.058;13.826;2023-05-27T10:23:13;29.50;52.00
64620;DHT22;51029;51.058;13.826;2023-05-27T10:25:53;30.50;50.60
64620;DHT22;51029;51.058;13.826;2023-05-27T10:28:33;31.30;44.90
64620;DHT22;51029;51.058;13.826;2023-05-27T10:31:09;32.10;43.10
64620;DHT22;51029;51.058;13.826;2023-05-27T10:33:41;32.80;42.30
64620;DHT22;51029;51.058;13.826;2023-05-27T10:36:16;33.10;40.30
64620;DHT22;51029;51.058;13.826;2023-05-27T10:38:42;33.80;38.60
64620;DHT22;51029;51.058;13.826;2023-05-27T10:41:09;34.30;36.80
64620;DHT22;51029;51.058;13.826;2023-05-27T10:43:35;35.20;35.40
64620;DHT22;51029;51.058;13.826;2023-05-27T10:46:02;35.50;34.30
64620;DHT22;51029;51.058;13.826;2023-05-27T10:48:28;36.30;32.60
64620;DHT22;51029;51.058;13.826;2023-05-27T10:50:57;35.40;31.20
64620;DHT22;51029;51.058;13.826;2023-05-27T10:53:23;35.00;32.50
64620;DHT22;51029;51.058;13.826;2023-05-27T10:55:50;35.30;33.60
64620;DHT22;51029;51.058;13.826;2023-05-27T10:58:17;34.70;32.00
64620;DHT22;51029;51.058;13.826;2023-05-27T11:00:44;36.50;31.70
64620;DHT22;51029;51.058;13.826;2023-05-27T11:03:22;38.10;29.50
64620;DHT22;51029;51.058;13.826;2023-05-27T11:06:01;39.40;28.20
64620;DHT22;51029;51.058;13.826;2023-05-27T11:08:27;39.90;27.50
64620;DHT22;51029;51.058;13.826;2023-05-27T11:13:35;38.10;25.40
64620;DHT22;51029;51.058;13.826;2023-05-27T11:16:03;38.90;27.00
64620;DHT22;51029;51.058;13.826;2023-05-27T11:18:48;40.00;26.20
64620;DHT22;51029;51.058;13.826;2023-05-27T11:21:16;38.90;25.80
64620;DHT22;51029;51.058;13.826;2023-05-27T11:23:46;41.40;25.10
64620;DHT22;51029;51.058;13.826;2023-05-27T11:26:22;42.20;24.30
64620;DHT22;51029;51.058;13.826;2023-05-27T11:31:14;43.70;22.80
64620;DHT22;51029;51.058;13.826;2023-05-27T11:33:41;44.80;22.00
64620;DHT22;51029;51.058;13.826;2023-05-27T11:36:11;44.60;21.00
64620;DHT22;51029;51.058;13.826;2023-05-27T11:38:58;44.60;21.20
64620;DHT22;51029;51.058;13.826;2023-05-27T11:41:26;45.80;20.80
64620;DHT22;51029;51.058;13.826;2023-05-27T11:44:00;45.10;20.30
64620;DHT22;51029;51.058;13.826;2023-05-27T11:46:42;43.40;19.60
64620;DHT22;51029;51.058;13.826;2023-05-27T11:49:09;39.80;21.50
64620;DHT22;51029;51.058;13.826;2023-05-27T11:52:03;41.20;22.30
64620;DHT22;51029;51.058;13.826;2023-05-27T11:54:30;44.00;21.30
64620;DHT22;51029;51.058;13.826;2023-05-27T11:56:56;45.40;20.60
64620;DHT22;51029;51.058;13.826;2023-05-27T11:59:24;46.70;19.40
64620;DHT22;51029;51.058;13.826;2023-05-27T12:01:51;46.80;18.70
64620;DHT22;51029;51.058;13.826;2023-05-27T12:04:17;46.90;19.00
64620;DHT22;51029;51.058;13.826;2023-05-27T12:06:44;47.70;18.60
64620;DHT22;51029;51.058;13.826;2023-05-27T12:09:10;48.90;17.80
64620;DHT22;51029;51.058;13.826;2023-05-27T12:11:37;47.40;17.00
64620;DHT22;51029;51.058;13.826;2023-05-27T12:14:03;47.50;17.20
64620;DHT22;51029;51.058;13.826;2023-05-27T12:16:29;46.60;17.40
64620;DHT22;51029;51.058;13.826;2023-05-27T12:18:55;47.10;18.40
64620;DHT22;51029;51.058;13.826;2023-05-27T12:21:21;47.90;17.80
64620;DHT22;51029;51.058;13.826;2023-05-27T12:23:47;48.60;17.50
64620;DHT22;51029;51.058;13.826;2023-05-27T12:26:14;49.00;17.10
64620;DHT22;51029;51.058;13.826;2023-05-27T12:28:41;49.20;16.90
64620;DHT22;51029;51.058;13.826;2023-05-27T12:31:06;49.80;16.80
64620;DHT22;51029;51.058;13.826;2023-05-27T12:33:32;50.60;16.40
64620;DHT22;51029;51.058;13.826;2023-05-27T12:35:58;50.80;16.30
64620;DHT22;51029;51.058;13.826;2023-05-27T12:38:24;51.90;15.80
64620;DHT22;51029;51.058;13.826;2023-05-27T12:40:50;51.50;16.10
64620;DHT22;51029;51.058;13.826;2023-05-27T12:43:18;51.10;15.80
64620;DHT22;51029;51.058;13.826;2023-05-27T12:45:44;49.70;15.40
64620;DHT22;51029;51.058;13.826;2023-05-27T12:48:13;50.40;15.70
64620;DHT22;51029;51.058;13.826;2023-05-27T12:50:39;50.40;15.40
64620;DHT22;51029;51.058;13.826;2023-05-27T12:53:05;49.50;15.70
64620;DHT22;51029;51.058;13.826;2023-05-27T12:55:31;50.00;15.30
64620;DHT22;51029;51.058;13.826;2023-05-27T12:57:56;50.30;15.00
64620;DHT22;51029;51.058;13.826;2023-05-27T13:00:22;50.90;15.40
64620;DHT22;51029;51.058;13.826;2023-05-27T13:02:48;50.40;15.30
64620;DHT22;51029;51.058;13.826;2023-05-27T13:05:15;50.70;15.20
64620;DHT22;51029;51.058;13.826;2023-05-27T13:07:53;50.20;15.30
64620;DHT22;51029;51.058;13.826;2023-05-27T13:10:19;48.50;15.20
64620;DHT22;51029;51.058;13.826;2023-05-27T13:12:46;49.00;15.60
64620;DHT22;51029;51.058;13.826;2023-05-27T13:15:12;50.10;15.60
64620;DHT22;51029;51.058;13.826;2023-05-27T13:17:38;49.60;15.20
64620;DHT22;51029;51.058;13.826;2023-05-27T13:20:04;48.90;15.20
64620;DHT22;51029;51.058;13.826;2023-05-27T13:22:30;49.50;15.20
64620;DHT22;51029;51.058;13.826;2023-05-27T13:24:55;49.80;14.90
64620;DHT22;51029;51.058;13.826;2023-05-27T13:27:21;50.10;14.80
64620;DHT22;51029;51.058;13.826;2023-05-27T13:29:47;49.50;14.40
64620;DHT22;51029;51.058;13.826;2023-05-27T13:32:12;49.50;15.00
64620;DHT22;51029;51.058;13.826;2023-05-27T13:34:38;48.50;14.80
64620;DHT22;51029;51.058;13.826;2023-05-27T13:37:04;48.10;14.90
64620;DHT22;51029;51.058;13.826;2023-05-27T13:39:30;48.40;15.40
64620;DHT22;51029;51.058;13.826;2023-05-27T13:41:56;48.20;15.10
64620;DHT22;51029;51.058;13.826;2023-05-27T13:44:21;48.70;15.20
64620;DHT22;51029;51.058;13.826;2023-05-27T13:46:48;48.20;14.80
64620;DHT22;51029;51.058;13.826;2023-05-27T13:49:13;47.60;14.80
64620;DHT22;51029;51.058;13.826;2023-05-27T13:51:45;48.10;15.30
64620;DHT22;51029;51.058;13.826;2023-05-27T13:54:12;48.10;15.00
64620;DHT22;51029;51.058;13.826;2023-05-27T13:56:37;47.80;15.20
64620;DHT22;51029;51.058;13.826;2023-05-27T13:59:03;46.90;15.40
64620;DHT22;51029;51.058;13.826;2023-05-27T14:01:29;46.90;15.40
64620;DHT22;51029;51.058;13.826;2023-05-27T14:03:55;47.00;15.60
64620;DHT22;51029;51.058;13.826;2023-05-27T14:06:22;46.80;15.60
64620;DHT22;51029;51.058;13.826;2023-05-27T14:08:47;46.60;15.60
64620;DHT22;51029;51.058;13.826;2023-05-27T14:11:13;46.60;15.80
64620;DHT22;51029;51.058;13.826;2023-05-27T14:13:39;46.40;15.50
64620;DHT22;51029;51.058;13.826;2023-05-27T14:16:04;43.80;15.40
64620;DHT22;51029;51.058;13.826;2023-05-27T14:18:30;39.80;17.20
64620;DHT22;51029;51.058;13.826;2023-05-27T14:20:55;36.90;19.30
64620;DHT22;51029;51.058;13.826;2023-05-27T14:23:21;35.00;20.70
64620;DHT22;51029;51.058;13.826;2023-05-27T14:25:46;33.50;22.20
64620;DHT22;51029;51.058;13.826;2023-05-27T14:28:12;32.80;23.40
64620;DHT22;51029;51.058;13.826;2023-05-27T14:30:37;35.60;23.00
64620;DHT22;51029;51.058;13.826;2023-05-27T14:33:04;37.80;21.20
64620;DHT22;51029;51.058;13.826;2023-05-27T14:35:38;39.50;20.30
64620;DHT22;51029;51.058;13.826;2023-05-27T14:38:05;40.60;19.70
64620;DHT22;51029;51.058;13.826;2023-05-27T14:40:31;41.30;18.70
64620;DHT22;51029;51.058;13.826;2023-05-27T14:42:57;41.60;18.30
64620;DHT22;51029;51.058;13.826;2023-05-27T14:45:22;42.20;18.30
64620;DHT22;51029;51.058;13.826;2023-05-27T14:47:49;42.70;18.00
64620;DHT22;51029;51.058;13.826;2023-05-27T14:50:23;42.70;17.80
64620;DHT22;51029;51.058;13.826;2023-05-27T14:52:50;42.60;17.60
64620;DHT22;51029;51.058;13.826;2023-05-27T14:55:16;40.50;17.50
64620;DHT22;51029;51.058;13.826;2023-05-27T14:57:41;36.70;18.30
64620;DHT22;51029;51.058;13.826;2023-05-27T15:00:07;34.00;20.60
64620;DHT22;51029;51.058;13.826;2023-05-27T15:02:36;31.90;21.90
64620;DHT22;51029;51.058;13.826;2023-05-27T15:05:04;30.00;23.60
64620;DHT22;51029;51.058;13.826;2023-05-27T15:07:31;29.30;25.10
64620;DHT22;51029;51.058;13.826;2023-05-27T15:09:57;29.10;25.80
64620;DHT22;51029;51.058;13.826;2023-05-27T15:12:23;29.00;25.60
64620;DHT22;51029;51.058;13.826;2023-05-27T15:14:49;28.70;26.00
64620;DHT22;51029;51.058;13.826;2023-05-27T15:17:14;28.00;26.60
64620;DHT22;51029;51.058;13.826;2023-05-27T15:19:40;27.10;27.80
64620;DHT22;51029;51.058;13.826;2023-05-27T15:22:05;27.00;29.20
64620;DHT22;51029;51.058;13.826;2023-05-27T15:24:32;26.90;29.70
64620;DHT22;51029;51.058;13.826;2023-05-27T15:26:58;26.70;29.90